1896 Hurricane NOT_NAMED (1896260N16306)


IBTrACS version v04r00. Visit IBTrACS website for data access.
Please direct all questions to the IBTrACS Q and A forum

Storm track - Intensity - Wind Radii - Intensity Data - Source Data - All data

Summary Information

Storm ID 1896260N16306
Start Sep 16 00Z
Max Intensity 90 kt (Sep 22 00Z), 965 mb (Sep 24 00Z)
End Sep 28 12Z
ATCF IDs ,AL031896
Track status Best track data.

Storm track plot

Map of storm track

Intensity plots

Map of storm track

Radial wind information

No radial wind information for this storm


Position and Intensity Table

BASIN ISO_TIME_________ NATURE LAT LON WMO WIND USA WIND MLC WIND MLC PRES
degrees north degrees east kts kts kts mb
NA 1896-09-16 00:00:00 TS 15.50 -54.50 35
NA 03:00:00 TS 15.65 -54.91 37
NA 06:00:00 TS 15.80 -55.30 40
NA 09:00:00 TS 15.95 -55.65 42
NA 12:00:00 TS 16.10 -56.00 45
NA 15:00:00 TS 16.25 -56.40 45
NA 18:00:00 TS 16.40 -56.80 45
NA 21:00:00 TS 16.55 -57.15 47
NA 1896-09-17 00:00:00 TS 16.70 -57.50 50
NA 03:00:00 TS 16.85 -57.90 52
NA 06:00:00 TS 17.00 -58.30 55
NA 09:00:00 TS 17.15 -58.65 57
NA 12:00:00 TS 17.30 -59.00 60
NA 15:00:00 TS 17.45 -59.40 60
NA 18:00:00 TS 17.60 -59.80 60
NA 21:00:00 TS 17.75 -60.15 62
NA 1896-09-18 00:00:00 TS 17.63 -58.70 35 35 65
NA 03:00:00 TS 17.68 -58.34 37 65
NA 06:00:00 TS 17.78 -58.42 40 40 65
NA 09:00:00 TS 17.88 -58.72 40 65
NA 12:00:00 TS 18.03 -59.33 40 40 65
NA 15:00:00 TS 18.22 -59.91 42 65
NA 18:00:00 TS 18.43 -60.47 45 45 65
NA 21:00:00 TS 18.65 -61.02 47 65
NA 1896-09-19 00:00:00 TS 18.87 -61.57 50 50 65
NA 03:00:00 TS 19.05 -62.12 52 67
NA 06:00:00 TS 19.23 -62.63 55 55 70
NA 09:00:00 TS 19.44 -63.10 57 70
NA 12:00:00 TS 19.67 -63.53 60 60 70
NA 15:00:00 TS 19.91 -63.98 62 70
NA 18:00:00 TS 20.17 -64.40 65 65 70
NA 21:00:00 TS 20.40 -64.79 67 70
NA 1896-09-20 00:00:00 TS 20.63 -65.17 70 70 70
NA 03:00:00 TS 20.87 -65.56 72 72
NA 06:00:00 TS 21.10 -65.97 75 75 75
NA 09:00:00 TS 21.33 -66.37 77 77
NA 12:00:00 TS 21.57 -66.80 80 80 80
NA 15:00:00 TS 21.84 -67.27 82 82
NA 18:00:00 TS 22.13 -67.77 85 85 85
NA 21:00:00 TS 22.43 -68.28 85 85
NA 1896-09-21 00:00:00 TS 22.73 -68.80 85 85 85
NA 03:00:00 TS 23.06 -69.30 85 85
NA 06:00:00 TS 23.40 -69.80 85 85 85
NA 09:00:00 TS 23.73 -70.32 85 85
NA 12:00:00 TS 24.07 -70.83 85 85 85
NA 15:00:00 TS 24.41 -71.30 85 85
NA 18:00:00 TS 24.77 -71.73 85 85 85
NA 21:00:00 TS 25.13 -72.15 85 87
NA 1896-09-22 00:00:00 TS 25.53 -72.53 85 85 90
NA 03:00:00 TS 25.97 -72.90 85 90
NA 06:00:00 TS 26.43 -73.23 85 85 90
NA 09:00:00 TS 26.86 -73.58 85 90
NA 12:00:00 TS 27.33 -73.83 85 85 90
NA 15:00:00 TS 27.91 -73.94 85 90
NA 18:00:00 TS 28.53 -73.93 85 85 90
NA 21:00:00 TS 29.09 -73.94 85 90
NA 1896-09-23 00:00:00 TS 29.70 -73.73 85 85 90
NA 03:00:00 TS 30.45 -73.23 85 90
NA 06:00:00 TS 31.27 -72.43 85 85 90
NA 09:00:00 TS 32.06 -71.41 85 90
NA 12:00:00 TS 32.83 -70.30 85 85 90
NA 15:00:00 TS 33.57 -69.32 85 90
NA 18:00:00 TS 34.30 -68.37 85 85 90
NA 21:00:00 TS 35.08 -67.41 85 90
NA 1896-09-24 00:00:00 TS 35.87 -66.43 85 85 90 965
NA 03:00:00 TS 36.64 -65.40 85 87
NA 06:00:00 TS 37.40 -64.40 85 85 85
NA 09:00:00 TS 38.13 -63.49 85 85
NA 12:00:00 TS 38.83 -62.63 85 85 85
NA 15:00:00 TS 39.50 -61.82 85 85
NA 18:00:00 TS 40.13 -60.97 85 85 85
NA 21:00:00 TS 40.72 -59.97 85 85
NA 1896-09-25 00:00:00 TS 41.30 -58.93 85 85 85
NA 03:00:00 TS 41.91 -57.96 85 85
NA 06:00:00 TS 42.53 -57.00 85 85 85
NA 09:00:00 TS 43.15 -56.02 85 85
NA 12:00:00 TS 43.80 -55.00 85 85 85
NA 15:00:00 TS 44.50 -53.91 85 80
NA 18:00:00 TS 45.23 -52.77 85 85 75
NA 21:00:00 TS 45.96 -51.57 85 70
NA 1896-09-26 00:00:00 MX 46.70 -50.33 85 85 65
NA 03:00:00 MX 47.45 -49.07 85 60
NA 06:00:00 MX 48.20 -47.79 85 85 55
NA 09:00:00 MX 48.95 -46.44 85 55
NA 12:00:00 MX 49.70 -45.00 85 85 55
NA 15:00:00 TS 50.44 -43.46 85
NA 18:00:00 TS 51.20 -41.90 85 85
NA 21:00:00 TS 52.00 -40.35 85
NA 1896-09-27 00:00:00 TS 52.80 -38.80 85 85
NA 03:00:00 TS 53.56 -37.25 82
NA 06:00:00 TS 54.30 -35.70 80 80
NA 09:00:00 TS 55.06 -34.10 80
NA 12:00:00 TS 55.80 -32.50 80 80
NA 15:00:00 TS 56.48 -30.89 77
NA 18:00:00 TS 57.10 -29.30 75 75
NA 21:00:00 TS 57.67 -27.69 72
NA 1896-09-28 00:00:00 TS 58.20 -26.10 70 70
NA 03:00:00 TS 58.72 -24.50 70
NA 06:00:00 TS 59.20 -22.90 70 70
NA 09:00:00 TS 59.62 -21.31 67
NA 12:00:00 TS 60.00 -19.70 65 65

Source Information

Agency Information
USA hurdat2-1851-2018-051019.txt:Line=8479:UNNAMED
TOKYO
CMA
HKO
NEWDELHI
REUNION
BOM
NADI
WELLINGTON
DS824
TD9636
TD9635
NEUMANN
MLC

All available IBTrACS Data

SEASON BASIN SUBBASIN ISO_TIME_________ NATURE LAT LON WMO WIND WMO AGENCY DIST2LAND LANDFALL IFLAG USA AGENCY USA ATCF_ID USA LAT USA LON USA STATUS USA WIND USA SSHS MLC LAT MLC LON MLC CLASS MLC WIND MLC PRES STORM SPEED STORM DIR
Year degrees north degrees east kts km km degrees north degrees east kts 1 degrees north degrees east kts mb kts degrees
1896 NA NA 1896-09-16 00:00:00 TS 15.50 -54.50 885 858 _____________O -1 15.50 -54.50 TS 35 9 291
1896 NA NA 03:00:00 TS 15.65 -54.91 865 840 _____________P -1 15.65 -54.91 TS 37 8 291
1896 NA NA 06:00:00 TS 15.80 -55.30 840 824 _____________O -1 15.80 -55.30 TS 40 8 293
1896 NA NA 09:00:00 TS 15.95 -55.65 817 810 _____________P -1 15.95 -55.65 TS 42 7 294
1896 NA NA 12:00:00 TS 16.10 -56.00 811 791 _____________O -1 16.10 -56.00 TS 45 8 293
1896 NA NA 15:00:00 TS 16.25 -56.40 800 783 _____________P -1 16.25 -56.40 TS 45 8 291
1896 NA NA 18:00:00 TS 16.40 -56.80 783 774 _____________O -1 16.40 -56.80 TS 45 8 293
1896 NA NA 21:00:00 TS 16.55 -57.15 768 766 _____________P -1 16.55 -57.15 TS 47 7 294
1896 NA NA 1896-09-17 00:00:00 TS 16.70 -57.50 770 760 _____________O -1 16.70 -57.50 TS 50 8 293
1896 NA NA 03:00:00 TS 16.85 -57.90 770 761 _____________P -1 16.85 -57.90 TS 52 8 291
1896 NA NA 06:00:00 TS 17.00 -58.30 763 751 _____________O -1 17.00 -58.30 TS 55 8 293
1896 NA NA 09:00:00 TS 17.15 -58.65 741 706 _____________P -1 17.15 -58.65 TS 57 7 294
1896 NA NA 12:00:00 TS 17.30 -59.00 706 662 _____________O -1 17.30 -59.00 TS 60 8 293
1896 NA NA 15:00:00 TS 17.45 -59.40 660 617 _____________P -1 17.45 -59.40 TS 60 8 291
1896 NA NA 18:00:00 TS 17.60 -59.80 617 574 _____________O -1 17.60 -59.80 TS 60 8 293
1896 NA NA 21:00:00 TS 17.75 -60.15 574 574 _____________P -1 17.75 -60.15 TS 62 10 88
1896 NA NA 1896-09-18 00:00:00 TS 17.63 -58.70 35 hurdat_atl 733 733 O____________O hurdat_atl AL031896 17.10 -55.10 TS 35 0 17.90 -60.50 HU 65 17 92
1896 NA NA 03:00:00 TS 17.68 -58.34 774 762 P____________P AL031896 17.31 -55.78 TS 37 0 18.05 -60.90 HU 65 3 61
1896 NA NA 06:00:00 TS 17.78 -58.42 40 hurdat_atl 762 730 O____________O hurdat_atl AL031896 17.50 -56.50 TS 40 0 18.20 -61.30 HU 65 4 299
1896 NA NA 09:00:00 TS 17.88 -58.72 730 666 P____________P AL031896 17.65 -57.26 TS 40 0 18.34 -61.65 HU 65 9 286
1896 NA NA 12:00:00 TS 18.03 -59.33 40 hurdat_atl 666 602 O____________O hurdat_atl AL031896 17.80 -58.00 TS 40 0 18.50 -62.00 HU 65 12 287
1896 NA NA 15:00:00 TS 18.22 -59.91 602 548 P____________P AL031896 17.98 -58.67 TS 42 0 18.70 -62.40 HU 65 12 290
1896 NA NA 18:00:00 TS 18.43 -60.47 45 hurdat_atl 538 485 O____________O hurdat_atl AL031896 18.20 -59.30 TS 45 0 18.90 -62.80 HU 65 11 292
1896 NA NA 21:00:00 TS 18.65 -61.02 486 434 P____________P AL031896 18.45 -59.96 TS 47 0 19.06 -63.15 HU 65 11 293
1896 NA NA 1896-09-19 00:00:00 TS 18.87 -61.57 50 hurdat_atl 425 374 O____________O hurdat_atl AL031896 18.70 -60.60 TS 50 0 19.20 -63.50 HU 65 11 291
1896 NA NA 03:00:00 TS 19.05 -62.12 374 328 P____________P AL031896 18.90 -61.22 TS 52 0 19.35 -63.90 HU 67 11 290
1896 NA NA 06:00:00 TS 19.23 -62.63 55 hurdat_atl 328 285 O____________O hurdat_atl AL031896 19.10 -61.80 TS 55 0 19.50 -64.30 HU 70 10 293
1896 NA NA 09:00:00 TS 19.44 -63.10 285 258 P____________P AL031896 19.34 -62.32 TS 57 0 19.63 -64.65 HU 70 10 297
1896 NA NA 12:00:00 TS 19.67 -63.53 60 hurdat_atl 264 237 O____________O hurdat_atl AL031896 19.60 -62.80 TS 60 0 19.80 -65.00 HU 70 10 300
1896 NA NA 15:00:00 TS 19.91 -63.98 237 228 P____________P AL031896 19.85 -63.27 TS 62 0 20.04 -65.40 HU 70 10 302
1896 NA NA 18:00:00 TS 20.17 -64.40 65 hurdat_atl 237 232 O____________O hurdat_atl AL031896 20.10 -63.70 HU 65 1 20.30 -65.80 HU 70 9 303
1896 NA NA 21:00:00 TS 20.40 -64.79 238 235 P____________P AL031896 20.35 -64.11 HU 67 1 20.51 -66.15 HU 70 9 303
1896 NA NA 1896-09-20 00:00:00 TS 20.63 -65.17 70 hurdat_atl 249 249 O____________O hurdat_atl AL031896 20.60 -64.50 HU 70 1 20.70 -66.50 HU 70 9 303
1896 NA NA 03:00:00 TS 20.87 -65.56 279 279 P____________P AL031896 20.85 -64.89 HU 72 1 20.90 -66.90 HU 72 9 302
1896 NA NA 06:00:00 TS 21.10 -65.97 75 hurdat_atl 302 302 O____________O hurdat_atl AL031896 21.10 -65.30 HU 75 1 21.10 -67.30 HU 75 9 301
1896 NA NA 09:00:00 TS 21.33 -66.37 324 324 P____________P AL031896 21.35 -65.74 HU 77 1 21.28 -67.64 HU 77 9 301
1896 NA NA 12:00:00 TS 21.57 -66.80 80 hurdat_atl 357 352 O____________O hurdat_atl AL031896 21.60 -66.20 HU 80 1 21.50 -68.00 HU 80 10 302
1896 NA NA 15:00:00 TS 21.84 -67.27 348 348 P____________P AL031896 21.84 -66.69 HU 82 1 21.83 -68.43 HU 82 11 302
1896 NA NA 18:00:00 TS 22.13 -67.77 85 hurdat_atl 349 349 O____________O hurdat_atl AL031896 22.10 -67.20 HU 85 2 22.20 -68.90 HU 85 11 302
1896 NA NA 21:00:00 TS 22.43 -68.28 359 359 P____________P AL031896 22.38 -67.74 HU 85 2 22.51 -69.36 HU 85 11 302
1896 NA NA 1896-09-21 00:00:00 TS 22.73 -68.80 85 hurdat_atl 368 368 O____________O hurdat_atl AL031896 22.70 -68.30 HU 85 2 22.80 -69.80 HU 85 11 304
1896 NA NA 03:00:00 TS 23.06 -69.30 392 389 P____________P AL031896 23.04 -68.85 HU 85 2 23.10 -70.20 HU 85 11 306
1896 NA NA 06:00:00 TS 23.40 -69.80 85 hurdat_atl 410 393 O____________O hurdat_atl AL031896 23.40 -69.40 HU 85 2 23.40 -70.60 HU 85 12 305
1896 NA NA 09:00:00 TS 23.73 -70.32 393 385 P____________P AL031896 23.74 -69.96 HU 85 2 23.71 -71.06 HU 85 12 305
1896 NA NA 12:00:00 TS 24.07 -70.83 85 hurdat_atl 394 387 O____________O hurdat_atl AL031896 24.10 -70.50 HU 85 2 24.00 -71.50 HU 85 11 307
1896 NA NA 15:00:00 TS 24.41 -71.30 397 393 P____________P AL031896 24.48 -71.02 HU 85 2 24.26 -71.87 HU 85 11 311
1896 NA NA 18:00:00 TS 24.77 -71.73 85 hurdat_atl 423 420 O____________O hurdat_atl AL031896 24.90 -71.50 HU 85 2 24.50 -72.20 HU 85 11 313
1896 NA NA 21:00:00 TS 25.13 -72.15 445 445 P____________P AL031896 25.33 -71.96 HU 85 2 24.75 -72.53 HU 87 11 317
1896 NA NA 1896-09-22 00:00:00 TS 25.53 -72.53 85 hurdat_atl 483 483 O____________O hurdat_atl AL031896 25.80 -72.40 HU 85 2 25.00 -72.80 HU 90 11 321
1896 NA NA 03:00:00 TS 25.97 -72.90 510 494 P____________P AL031896 26.33 -72.87 HU 85 2 25.25 -72.97 HU 90 11 325
1896 NA NA 06:00:00 TS 26.43 -73.23 85 hurdat_atl 498 478 O____________O hurdat_atl AL031896 26.90 -73.30 HU 85 2 25.50 -73.10 HU 90 11 326
1896 NA NA 09:00:00 TS 26.86 -73.58 483 474 P____________P AL031896 27.44 -73.71 HU 85 2 25.70 -73.32 HU 90 11 329
1896 NA NA 12:00:00 TS 27.33 -73.83 85 hurdat_atl 485 482 O____________O hurdat_atl AL031896 28.00 -74.00 HU 85 2 26.00 -73.50 HU 90 11 343
1896 NA NA 15:00:00 TS 27.91 -73.94 513 513 P____________P AL031896 28.59 -74.13 HU 85 2 26.55 -73.58 HU 90 12 356
1896 NA NA 18:00:00 TS 28.53 -73.93 85 hurdat_atl 556 556 O____________O hurdat_atl AL031896 29.20 -74.10 HU 85 2 27.20 -73.60 HU 90 12 1
1896 NA NA 21:00:00 TS 29.09 -73.94 603 603 P____________P AL031896 29.79 -74.04 HU 85 2 27.68 -73.73 HU 90 12 9
1896 NA NA 1896-09-23 00:00:00 TS 29.70 -73.73 85 hurdat_atl 616 565 O____________O hurdat_atl AL031896 30.40 -73.80 HU 85 2 28.30 -73.60 HU 90 15 24
1896 NA NA 03:00:00 TS 30.45 -73.23 560 539 P____________P AL031896 31.04 -73.35 HU 85 2 29.27 -72.97 HU 90 19 36
1896 NA NA 06:00:00 TS 31.27 -72.43 85 hurdat_atl 537 535 O____________O hurdat_atl AL031896 31.70 -72.70 HU 85 2 30.40 -71.90 HU 90 22 44
1896 NA NA 09:00:00 TS 32.06 -71.41 550 550 P____________P AL031896 32.34 -71.92 HU 85 2 31.49 -70.41 HU 90 24 49
1896 NA NA 12:00:00 TS 32.83 -70.30 85 hurdat_atl 582 582 O____________O hurdat_atl AL031896 33.00 -71.00 HU 85 2 32.50 -68.90 HU 90 23 49
1896 NA NA 15:00:00 TS 33.57 -69.32 616 616 P____________P AL031896 33.68 -70.03 HU 85 2 33.34 -67.89 HU 90 22 48
1896 NA NA 18:00:00 TS 34.30 -68.37 85 hurdat_atl 666 666 O____________O hurdat_atl AL031896 34.40 -69.00 HU 85 2 34.10 -67.10 HU 90 22 46
1896 NA NA 21:00:00 TS 35.08 -67.41 735 723 P____________P AL031896 35.19 -67.96 HU 85 2 34.85 -66.29 HU 90 22 45
1896 NA NA 1896-09-24 00:00:00 TS 35.87 -66.43 85 hurdat_atl 716 686 O____________O hurdat_atl AL031896 36.00 -66.90 HU 85 2 35.60 -65.50 HU 90 965 23 46
1896 NA NA 03:00:00 TS 36.64 -65.40 691 670 P____________P AL031896 36.76 -65.79 HU 85 2 36.40 -64.63 HU 87 22 47
1896 NA NA 06:00:00 TS 37.40 -64.40 85 hurdat_atl 676 617 O____________O hurdat_atl AL031896 37.50 -64.70 HU 85 2 37.20 -63.80 HU 85 21 46
1896 NA NA 09:00:00 TS 38.13 -63.49 619 566 P____________P AL031896 38.21 -63.68 HU 85 2 37.97 -63.11 HU 85 20 44
1896 NA NA 12:00:00 TS 38.83 -62.63 85 hurdat_atl 569 526 O____________O hurdat_atl AL031896 38.90 -62.70 HU 85 2 38.70 -62.50 HU 85 19 44
1896 NA NA 15:00:00 TS 39.50 -61.82 531 512 P____________P AL031896 39.57 -61.74 HU 85 2 39.36 -61.97 HU 85 18 45
1896 NA NA 18:00:00 TS 40.13 -60.97 85 hurdat_atl 517 495 O____________O hurdat_atl AL031896 40.20 -60.80 HU 85 2 40.00 -61.30 HU 85 19 49
1896 NA NA 21:00:00 TS 40.72 -59.97 499 465 P____________P AL031896 40.76 -59.85 HU 85 2 40.65 -60.21 HU 85 19 53
1896 NA NA 1896-09-25 00:00:00 TS 41.30 -58.93 85 hurdat_atl 468 443 O____________O hurdat_atl AL031896 41.30 -58.90 HU 85 2 41.30 -59.00 HU 85 19 52
1896 NA NA 03:00:00 TS 41.91 -57.96 443 433 P____________P AL031896 41.88 -57.96 HU 85 2 41.96 -57.98 HU 85 19 49
1896 NA NA 06:00:00 TS 42.53 -57.00 85 hurdat_atl 438 412 O____________O hurdat_atl AL031896 42.50 -57.00 HU 85 2 42.60 -57.00 HU 85 19 49
1896 NA NA 09:00:00 TS 43.15 -56.02 400 332 P____________P AL031896 43.13 -56.01 HU 85 2 43.18 -56.03 HU 85 19 49
1896 NA NA 12:00:00 TS 43.80 -55.00 85 hurdat_atl 329 235 O____________O hurdat_atl AL031896 43.80 -55.00 HU 85 2 43.80 -55.00 HU 85 20 48
1896 NA NA 15:00:00 TS 44.50 -53.91 234 157 P____________P AL031896 44.48 -53.98 HU 85 2 44.53 -53.79 HU 80 21 48
1896 NA NA 18:00:00 TS 45.23 -52.77 85 hurdat_atl 158 133 O____________O hurdat_atl AL031896 45.20 -52.90 HU 85 2 45.30 -52.50 HU 75 22 48
1896 NA NA 21:00:00 TS 45.96 -51.57 138 138 P____________P AL031896 45.94 -51.73 HU 85 2 46.00 -51.25 HU 70 22 49
1896 NA NA 1896-09-26 00:00:00 MX 46.70 -50.33 85 hurdat_atl 194 194 O____________O hurdat_atl AL031896 46.70 -50.50 HU 85 2 46.70 -50.00 EX 65 23 49
1896 NA NA 03:00:00 MX 47.45 -49.07 262 262 P____________P AL031896 47.45 -49.23 HU 85 2 47.44 -48.75 EX 60 23 49
1896 NA NA 06:00:00 MX 48.20 -47.79 85 hurdat_atl 364 364 O____________O hurdat_atl AL031896 48.20 -47.90 HU 85 2 48.20 -47.50 EX 55 23 49
1896 NA NA 09:00:00 MX 48.95 -46.44 477 477 P____________P AL031896 48.95 -46.48 HU 85 2 48.96 -46.26 EX 55 24 51
1896 NA NA 12:00:00 MX 49.70 -45.00 85 hurdat_atl 594 594 O____________O hurdat_atl AL031896 49.70 -45.00 HU 85 2 49.70 -45.00 EX 55 24 52
1896 NA NA 15:00:00 TS 50.44 -43.46 714 714 P_____________ AL031896 50.44 -43.46 HU 85 2 EX 25 53
1896 NA NA 18:00:00 TS 51.20 -41.90 85 hurdat_atl 845 845 O_____________ hurdat_atl AL031896 51.20 -41.90 HU 85 2 25 51
1896 NA NA 21:00:00 TS 52.00 -40.35 913 847 P_____________ AL031896 52.00 -40.35 HU 85 2 25 50
1896 NA NA 1896-09-27 00:00:00 TS 52.80 -38.80 85 hurdat_atl 849 807 O_____________ hurdat_atl AL031896 52.80 -38.80 HU 85 2 24 50
1896 NA NA 03:00:00 TS 53.56 -37.25 800 775 P_____________ AL031896 53.56 -37.25 HU 82 1 24 51
1896 NA NA 06:00:00 TS 54.30 -35.70 80 hurdat_atl 779 767 O_____________ hurdat_atl AL031896 54.30 -35.70 HU 80 1 24 51
1896 NA NA 09:00:00 TS 55.06 -34.10 767 767 P_____________ AL031896 55.06 -34.10 HU 80 1 24 51
1896 NA NA 12:00:00 TS 55.80 -32.50 80 hurdat_atl 781 781 O_____________ hurdat_atl AL031896 55.80 -32.50 HU 80 1 23 52
1896 NA NA 15:00:00 TS 56.48 -30.89 811 811 P_____________ AL031896 56.48 -30.89 HU 77 1 22 54
1896 NA NA 18:00:00 TS 57.10 -29.30 75 hurdat_atl 822 738 O_____________ hurdat_atl AL031896 57.10 -29.30 HU 75 1 21 56
1896 NA NA 21:00:00 TS 57.67 -27.69 726 647 P_____________ AL031896 57.67 -27.69 HU 72 1 20 57
1896 NA NA 1896-09-28 00:00:00 TS 58.20 -26.10 70 hurdat_atl 645 573 O_____________ hurdat_atl AL031896 58.20 -26.10 HU 70 1 20 58
1896 NA NA 03:00:00 TS 58.72 -24.50 572 498 P_____________ AL031896 58.72 -24.50 HU 70 1 19 59
1896 NA NA 06:00:00 TS 59.20 -22.90 70 hurdat_atl 496 436 O_____________ hurdat_atl AL031896 59.20 -22.90 HU 70 1 19 61
1896 NA NA 09:00:00 TS 59.62 -21.31 435 380 P_____________ AL031896 59.62 -21.31 HU 67 1 18 64
1896 NA NA 12:00:00 TS 60.00 -19.70 65 hurdat_atl 379 O_____________ hurdat_atl AL031896 60.00 -19.70 HU 65 1 18 65